createdAt,value
2022-08-03T00:01:37.323Z,100.00
2022-08-03T00:04:06.090Z,100.00
2022-08-03T00:06:37.122Z,100.00
2022-08-03T00:09:07.123Z,100.00
2022-08-03T00:11:35.140Z,100.00
2022-08-03T00:14:03.121Z,100.00
2022-08-03T00:16:31.112Z,100.00
2022-08-03T00:19:00.727Z,100.00
2022-08-03T00:21:29.323Z,100.00
2022-08-03T00:23:57.768Z,100.00
2022-08-03T00:26:27.014Z,100.00
2022-08-03T00:28:54.951Z,100.00
2022-08-03T00:31:39.839Z,100.00
2022-08-03T00:34:10.786Z,100.00
2022-08-03T00:36:40.962Z,100.00
2022-08-03T00:39:09.219Z,100.00
2022-08-03T00:41:38.542Z,100.00
2022-08-03T00:44:06.456Z,100.00
2022-08-03T00:46:34.582Z,100.00
2022-08-03T00:49:03.501Z,100.00
2022-08-03T00:51:31.490Z,100.00
2022-08-03T00:53:59.483Z,100.00
2022-08-03T00:56:27.830Z,100.00
2022-08-03T00:58:58.425Z,100.00
2022-08-03T01:01:26.432Z,100.00
2022-08-03T01:04:00.268Z,100.00
2022-08-03T01:06:34.578Z,100.00
2022-08-03T01:09:06.691Z,100.00
2022-08-03T01:12:01.026Z,100.00
2022-08-03T01:14:35.540Z,100.00
2022-08-03T01:17:06.585Z,100.00
2022-08-03T01:19:45.009Z,100.00
2022-08-03T01:22:24.782Z,100.00
2022-08-03T01:24:58.138Z,100.00
2022-08-03T01:27:30.712Z,100.00
2022-08-03T01:30:06.083Z,100.00
2022-08-03T01:32:58.244Z,100.00
2022-08-03T01:35:36.708Z,100.00
2022-08-03T01:38:11.267Z,100.00
2022-08-03T01:40:41.170Z,100.00
2022-08-03T01:43:10.563Z,100.00
2022-08-03T01:45:40.339Z,100.00
2022-08-03T01:48:09.094Z,100.00
2022-08-03T01:50:37.454Z,100.00
2022-08-03T01:53:07.876Z,100.00
2022-08-03T01:55:37.023Z,100.00
2022-08-03T01:58:06.931Z,100.00
2022-08-03T02:00:37.316Z,100.00
2022-08-03T02:03:08.024Z,100.00
2022-08-03T02:05:36.360Z,100.00
2022-08-03T02:08:06.963Z,100.00
2022-08-03T02:10:36.725Z,100.00
2022-08-03T02:13:06.401Z,100.00
2022-08-03T02:15:35.079Z,100.00
2022-08-03T02:18:04.702Z,100.00
2022-08-03T02:20:36.353Z,100.00
2022-08-03T02:23:04.708Z,100.00
2022-08-03T02:25:33.719Z,100.00
2022-08-03T02:28:08.334Z,100.00
2022-08-03T02:30:38.653Z,100.00
2022-08-03T02:33:11.686Z,100.00
2022-08-03T02:35:41.140Z,100.00
2022-08-03T02:38:11.439Z,100.00
2022-08-03T02:40:40.703Z,100.00
2022-08-03T02:43:10.415Z,100.00
2022-08-03T02:45:45.502Z,100.00
2022-08-03T02:48:17.565Z,100.00
2022-08-03T02:50:47.261Z,100.00
2022-08-03T02:53:15.378Z,100.00
2022-08-03T02:55:45.987Z,100.00
2022-08-03T02:58:14.859Z,100.00
2022-08-03T03:00:44.724Z,100.00
2022-08-03T03:03:12.820Z,100.00
2022-08-03T03:05:55.823Z,100.00
2022-08-03T03:08:28.741Z,100.00
2022-08-03T03:10:58.577Z,100.00
2022-08-03T03:13:28.310Z,100.00
2022-08-03T03:15:58.505Z,100.00
2022-08-03T03:18:26.711Z,100.00
2022-08-03T03:20:55.282Z,100.00
2022-08-03T03:23:23.881Z,100.00
2022-08-03T03:25:53.544Z,100.00
2022-08-03T03:28:21.541Z,100.00
2022-08-03T03:30:53.167Z,100.00
2022-08-03T03:33:21.763Z,100.00
2022-08-03T03:35:50.147Z,100.00
2022-08-03T03:38:18.304Z,100.00
2022-08-03T03:40:46.435Z,100.00
2022-08-03T03:43:15.791Z,100.00
2022-08-03T03:45:43.968Z,100.00
2022-08-03T03:48:12.445Z,100.00
2022-08-03T03:50:41.399Z,100.00
2022-08-03T03:53:11.073Z,100.00
2022-08-03T03:55:59.254Z,100.00
2022-08-03T03:58:29.541Z,100.00
2022-08-03T04:00:57.508Z,100.00
2022-08-03T04:03:25.511Z,100.00
2022-08-03T04:06:10.742Z,100.00
2022-08-03T04:08:56.233Z,100.00
2022-08-03T04:11:30.060Z,100.00
2022-08-03T04:14:05.231Z,100.00
2022-08-03T04:16:38.786Z,100.00
2022-08-03T04:19:12.034Z,100.00
2022-08-03T04:21:42.980Z,100.00
2022-08-03T04:24:12.372Z,100.00
2022-08-03T04:26:41.772Z,100.00
2022-08-03T04:29:12.411Z,100.00
2022-08-03T04:31:41.140Z,100.00
2022-08-03T04:34:09.276Z,100.00
2022-08-03T04:36:41.270Z,100.00
2022-08-03T04:39:12.031Z,100.00
2022-08-03T04:42:07.188Z,100.00
2022-08-03T04:44:30.473Z,100.00
2022-08-03T04:46:59.251Z,100.00
2022-08-03T04:49:27.643Z,100.00
2022-08-03T04:51:55.862Z,100.00
2022-08-03T04:54:23.757Z,100.00
2022-08-03T04:56:51.731Z,100.00
2022-08-03T04:59:19.698Z,100.00
2022-08-03T05:01:49.178Z,100.00
2022-08-03T05:04:17.136Z,100.00
2022-08-03T05:06:48.212Z,100.00
2022-08-03T05:09:50.245Z,100.00
2022-08-03T05:12:11.529Z,100.00
2022-08-03T05:14:39.733Z,100.00
2022-08-03T05:17:09.529Z,100.00
2022-08-03T05:19:37.593Z,100.00
2022-08-03T05:22:05.532Z,100.00
2022-08-03T05:24:33.520Z,100.00
2022-08-03T05:27:01.465Z,100.00
2022-08-03T05:29:29.421Z,100.00
2022-08-03T05:31:57.496Z,100.00
2022-08-03T05:34:26.852Z,100.00
2022-08-03T05:36:54.815Z,100.00
2022-08-03T05:39:22.779Z,100.00
2022-08-03T05:41:50.739Z,100.00
2022-08-03T05:44:40.469Z,100.00
2022-08-03T05:52:00.027Z,100.00
2022-08-03T05:54:55.580Z,100.00
2022-08-03T05:57:25.835Z,100.00
2022-08-03T05:59:58.031Z,100.00
2022-08-03T06:02:27.061Z,100.00
2022-08-03T06:04:55.369Z,100.00
2022-08-03T06:07:23.577Z,100.00
2022-08-03T06:10:33.803Z,100.00
2022-08-03T06:12:41.386Z,100.00
2022-08-03T06:15:11.453Z,100.00
2022-08-03T06:17:47.233Z,100.00
2022-08-03T06:20:16.869Z,100.00
2022-08-03T06:22:50.848Z,100.00
2022-08-03T06:25:21.324Z,100.00
2022-08-03T06:27:49.466Z,100.00
2022-08-03T06:30:21.228Z,100.00
2022-08-03T06:32:52.028Z,100.00
2022-08-03T06:35:20.513Z,100.00
2022-08-03T06:37:49.885Z,100.00
2022-08-03T06:40:24.612Z,100.00
2022-08-03T06:42:52.726Z,100.00
2022-08-03T06:45:20.883Z,100.00
2022-08-03T06:47:48.857Z,100.00
2022-08-03T06:50:19.027Z,100.00
2022-08-03T06:52:48.654Z,100.00
2022-08-03T06:55:16.565Z,100.00
2022-08-03T06:57:45.930Z,100.00
2022-08-03T07:00:14.815Z,100.00
2022-08-03T07:02:43.178Z,100.00
2022-08-03T07:05:11.948Z,100.00
2022-08-03T07:07:40.400Z,100.00
2022-08-03T07:10:09.583Z,100.00
2022-08-03T07:12:37.940Z,100.00
2022-08-03T07:15:55.232Z,100.00
2022-08-03T07:18:13.836Z,100.00
2022-08-03T07:20:42.243Z,100.00
2022-08-03T07:23:18.838Z,100.00
2022-08-03T07:25:47.444Z,100.00
2022-08-03T07:28:15.586Z,100.00
2022-08-03T07:30:44.909Z,100.00
2022-08-03T07:33:12.843Z,100.00
2022-08-03T07:35:40.860Z,100.00
2022-08-03T07:38:08.826Z,100.00
2022-08-03T07:40:36.845Z,100.00
2022-08-03T07:43:05.031Z,100.00
2022-08-03T07:45:33.356Z,100.00
2022-08-03T07:48:02.764Z,100.00
2022-08-03T07:50:31.075Z,100.00
2022-08-03T07:52:59.749Z,100.00
2022-08-03T07:55:28.685Z,100.00
2022-08-03T07:58:04.782Z,100.00
2022-08-03T08:00:33.239Z,100.00
2022-08-03T08:03:02.773Z,100.00
2022-08-03T08:05:32.542Z,100.00
2022-08-03T08:08:00.802Z,100.00
2022-08-03T08:10:29.258Z,100.00
2022-08-03T08:12:57.594Z,100.00
2022-08-03T08:15:25.806Z,100.00
2022-08-03T08:17:54.991Z,100.00
2022-08-03T08:20:30.398Z,100.00
2022-08-03T08:23:01.397Z,100.00
2022-08-03T08:25:31.322Z,100.00
2022-08-03T08:28:22.171Z,100.00
2022-08-03T08:30:50.015Z,100.00
2022-08-03T08:33:23.103Z,100.00
2022-08-03T08:35:54.883Z,100.00
2022-08-03T08:38:23.306Z,100.00
2022-08-03T08:40:51.407Z,100.00
2022-08-03T08:43:19.334Z,99.05
2022-08-03T08:45:49.031Z,97.83
2022-08-03T08:48:19.812Z,94.95
2022-08-03T08:50:47.893Z,93.55
2022-08-03T08:53:18.270Z,87.63
2022-08-03T08:55:58.453Z,89.40
2022-08-03T08:58:30.255Z,92.34
2022-08-03T09:00:58.373Z,93.68
2022-08-03T09:03:29.905Z,91.25
2022-08-03T09:06:00.112Z,91.51
2022-08-03T09:08:29.728Z,87.58
2022-08-03T09:10:57.617Z,88.76
2022-08-03T09:13:25.482Z,86.28
2022-08-03T09:16:14.123Z,88.26
2022-08-03T09:18:42.433Z,90.21
2022-08-03T09:21:34.948Z,92.35
2022-08-03T09:24:07.129Z,89.00
2022-08-03T09:26:39.023Z,84.43
2022-08-03T09:29:13.754Z,85.38
2022-08-03T09:31:44.288Z,83.34
2022-08-03T09:34:14.162Z,80.97
2022-08-03T09:36:43.958Z,81.96
2022-08-03T09:39:15.243Z,81.76
2022-08-03T09:41:44.983Z,79.25
2022-08-03T09:44:24.694Z,77.85
2022-08-03T09:46:55.067Z,77.45
2022-08-03T09:49:23.352Z,77.43
2022-08-03T09:52:32.975Z,77.31
2022-08-03T09:54:40.893Z,80.37
2022-08-03T09:57:09.028Z,76.49
2022-08-03T09:59:41.226Z,77.44
2022-08-03T10:02:22.038Z,81.23
2022-08-03T10:04:51.053Z,81.32
2022-08-03T10:07:19.413Z,78.70
2022-08-03T10:09:57.192Z,76.05
2022-08-03T10:12:25.382Z,75.47
2022-08-03T10:14:53.812Z,74.05
2022-08-03T10:17:22.319Z,74.73
2022-08-03T10:19:50.267Z,73.85
2022-08-03T10:22:21.104Z,73.88
2022-08-03T10:24:54.159Z,73.54
2022-08-03T10:27:24.289Z,74.29
2022-08-03T10:29:54.583Z,74.17
2022-08-03T10:32:26.662Z,73.32
2022-08-03T10:35:00.230Z,73.24
2022-08-03T10:37:34.457Z,75.35
2022-08-03T10:40:03.933Z,74.12
2022-08-03T10:42:33.306Z,78.30
2022-08-03T10:45:06.116Z,79.54
2022-08-03T10:47:35.426Z,75.00
2022-08-03T10:50:03.994Z,75.69
2022-08-03T10:52:36.085Z,74.59
2022-08-03T10:55:47.710Z,72.89
2022-08-03T10:58:57.545Z,72.37
2022-08-03T11:02:00.371Z,71.86
2022-08-03T11:04:30.297Z,73.00
2022-08-03T11:07:21.409Z,70.19
2022-08-03T11:09:50.926Z,69.86
2022-08-03T11:12:29.845Z,72.15
2022-08-03T11:15:03.246Z,71.86
2022-08-03T11:17:31.387Z,72.85
2022-08-03T11:19:59.411Z,70.08
2022-08-03T11:22:50.863Z,69.15
2022-08-03T11:25:54.779Z,66.74
2022-08-03T11:28:28.320Z,66.29
2022-08-03T11:30:57.701Z,70.05
2022-08-03T11:33:32.097Z,67.58
2022-08-03T11:36:01.273Z,66.32
2022-08-03T11:38:29.179Z,64.54
2022-08-03T11:40:57.165Z,62.45
2022-08-03T11:43:48.792Z,62.70
2022-08-03T11:46:29.558Z,64.28
2022-08-03T11:49:09.896Z,60.97
2022-08-03T11:51:39.994Z,61.46
2022-08-03T11:54:08.388Z,63.97
2022-08-03T11:56:45.745Z,64.28
2022-08-03T11:59:19.939Z,61.41
2022-08-03T12:01:51.347Z,61.37
2022-08-03T12:04:19.288Z,62.34
2022-08-03T12:07:00.228Z,60.78
2022-08-03T12:09:28.204Z,57.66
2022-08-03T12:12:00.304Z,58.45
2022-08-03T12:14:49.019Z,62.95
2022-08-03T12:17:19.551Z,63.88
2022-08-03T12:19:47.987Z,61.46
2022-08-03T12:22:17.066Z,57.64
2022-08-03T12:24:47.808Z,51.20
2022-08-03T12:27:25.145Z,52.64
2022-08-03T12:29:57.233Z,54.80
2022-08-03T12:32:29.818Z,59.69
2022-08-03T12:35:01.051Z,57.24
2022-08-03T12:37:30.021Z,55.86
2022-08-03T12:40:08.024Z,50.52
2022-08-03T12:42:39.578Z,53.58
2022-08-03T12:45:20.794Z,54.50
2022-08-03T12:47:55.431Z,51.93
2022-08-03T12:50:28.260Z,52.94
2022-08-03T12:52:56.789Z,53.61
2022-08-03T12:55:25.327Z,52.31
2022-08-03T12:57:53.273Z,53.67
2022-08-03T13:00:28.906Z,51.97
2022-08-03T13:03:39.251Z,53.12
2022-08-03T13:05:52.485Z,48.74
2022-08-03T13:08:20.946Z,49.22
2022-08-03T13:10:49.188Z,47.53
2022-08-03T13:13:17.226Z,50.37
2022-08-03T13:15:47.949Z,55.22
2022-08-03T13:18:17.757Z,57.11
2022-08-03T13:20:45.812Z,54.40
2022-08-03T13:23:16.193Z,52.05
2022-08-03T13:25:55.410Z,50.74
2022-08-03T13:28:24.180Z,50.78
2022-08-03T13:30:54.179Z,50.79
2022-08-03T13:33:23.562Z,48.73
2022-08-03T13:35:51.494Z,49.98
2022-08-03T13:38:19.424Z,48.49
2022-08-03T13:40:49.637Z,47.00
2022-08-03T13:43:18.130Z,47.67
2022-08-03T13:45:51.204Z,49.49
2022-08-03T13:48:36.145Z,51.19
2022-08-03T13:51:21.695Z,52.89
2022-08-03T13:53:50.392Z,48.93
2022-08-03T13:56:18.393Z,45.51
2022-08-03T13:58:46.321Z,44.42
2022-08-03T14:01:14.328Z,43.24
2022-08-03T14:03:43.597Z,41.16
2022-08-03T14:06:12.196Z,39.08
2022-08-03T14:08:40.135Z,37.38
2022-08-03T14:11:08.626Z,42.37
2022-08-03T14:13:36.631Z,45.79
2022-08-03T14:16:05.091Z,43.54
2022-08-03T14:18:33.804Z,45.27
2022-08-03T14:21:06.663Z,52.11
2022-08-03T14:23:35.906Z,54.11
2022-08-03T14:26:03.843Z,55.08
2022-08-03T14:28:31.921Z,50.08
2022-08-03T14:31:00.045Z,63.06
2022-08-03T14:33:28.374Z,65.47
2022-08-03T14:35:56.397Z,69.42
2022-08-03T14:38:25.683Z,66.76
2022-08-03T14:40:54.237Z,69.57
2022-08-03T14:43:22.358Z,74.20
2022-08-03T14:45:52.245Z,78.96
2022-08-03T14:50:30.563Z,93.84
2022-08-03T14:51:08.591Z,96.47
2022-08-03T14:53:37.913Z,100.00
2022-08-03T14:56:10.158Z,96.12
2022-08-03T14:58:38.976Z,95.01
2022-08-03T15:02:02.107Z,93.03
2022-08-03T15:03:55.939Z,96.39
2022-08-03T15:06:23.840Z,100.00
2022-08-03T15:09:21.339Z,100.00
2022-08-03T15:11:41.126Z,100.00
2022-08-03T15:14:09.648Z,100.00
2022-08-03T15:16:38.222Z,100.00
2022-08-03T15:20:01.409Z,100.00
2022-08-03T15:21:54.327Z,98.34
2022-08-03T15:24:23.673Z,93.32
2022-08-03T15:26:52.000Z,90.93
2022-08-03T15:30:07.561Z,93.58
2022-08-03T15:32:09.590Z,97.94
2022-08-03T15:34:37.737Z,100.00
2022-08-03T15:37:16.494Z,98.81
2022-08-03T15:39:58.812Z,94.52
2022-08-03T15:42:28.492Z,90.75
2022-08-03T15:44:56.428Z,89.81
2022-08-03T15:47:24.399Z,84.60
2022-08-03T15:49:52.374Z,79.92
2022-08-03T15:52:20.301Z,75.46
2022-08-03T15:54:49.586Z,81.25
2022-08-03T15:57:17.659Z,71.96
2022-08-03T15:59:45.691Z,70.77
2022-08-03T16:02:13.782Z,67.67
2022-08-03T16:04:41.713Z,62.56
2022-08-03T16:07:17.728Z,63.48
2022-08-03T16:09:46.141Z,70.18
2022-08-03T16:12:16.781Z,66.53
2022-08-03T16:14:53.771Z,66.33
2022-08-03T16:17:22.810Z,73.95
2022-08-03T16:19:51.037Z,71.76
2022-08-03T16:22:23.021Z,64.44
2022-08-03T16:24:51.804Z,69.23
2022-08-03T16:27:36.744Z,66.53
2022-08-03T16:30:06.815Z,68.65
2022-08-03T16:32:35.043Z,73.21
2022-08-03T16:35:03.105Z,82.21
2022-08-03T16:37:39.417Z,90.61
2022-08-03T16:40:19.175Z,84.29
2022-08-03T16:42:48.891Z,85.37
2022-08-03T16:45:16.843Z,85.92
2022-08-03T16:47:44.931Z,87.95
2022-08-03T16:50:19.440Z,90.98
2022-08-03T16:52:48.339Z,90.58
2022-08-03T16:55:18.413Z,86.22
2022-08-03T16:58:06.891Z,89.89
2022-08-03T17:00:41.755Z,95.37
2022-08-03T17:03:18.893Z,94.34
2022-08-03T17:05:50.138Z,93.04
2022-08-03T17:08:26.603Z,91.25
2022-08-03T17:10:56.393Z,98.47
2022-08-03T17:13:39.320Z,92.77
2022-08-03T17:16:10.366Z,88.52
2022-08-03T17:18:48.656Z,87.31
2022-08-03T17:21:18.788Z,95.47
2022-08-03T17:23:55.603Z,89.37
2022-08-03T17:26:30.573Z,91.50
2022-08-03T17:29:12.641Z,100.00
2022-08-03T17:31:48.915Z,100.00
2022-08-03T17:34:18.920Z,100.00
2022-08-03T17:37:05.793Z,100.00
2022-08-03T17:42:31.123Z,100.00
2022-08-03T17:45:03.887Z,100.00
2022-08-03T17:50:25.003Z,100.00
2022-08-03T17:52:59.569Z,100.00
2022-08-03T17:55:57.714Z,100.00
2022-08-03T17:58:23.335Z,100.00
2022-08-03T18:02:02.787Z,100.00
2022-08-03T18:04:10.933Z,100.00
2022-08-03T18:06:55.789Z,100.00
2022-08-03T18:10:05.862Z,100.00
2022-08-03T18:12:19.939Z,100.00
2022-08-03T18:14:57.154Z,100.00
2022-08-03T18:17:58.288Z,100.00
2022-08-03T18:20:34.748Z,100.00
2022-08-03T18:23:10.863Z,100.00
2022-08-03T18:25:58.279Z,100.00
2022-08-03T18:28:28.861Z,100.00
2022-08-03T18:30:56.966Z,100.00
2022-08-03T18:34:18.572Z,100.00
2022-08-03T18:36:21.580Z,100.00
2022-08-03T18:38:53.927Z,100.00
2022-08-03T18:41:33.632Z,100.00
2022-08-03T18:44:07.010Z,100.00
2022-08-03T18:46:48.096Z,100.00
2022-08-03T18:49:29.016Z,100.00
2022-08-03T18:52:02.294Z,100.00
2022-08-03T18:54:59.086Z,100.00
2022-08-03T18:57:41.193Z,100.00
2022-08-03T19:00:14.889Z,100.00
2022-08-03T19:02:49.484Z,100.00
2022-08-03T19:05:21.580Z,100.00
2022-08-03T19:07:59.815Z,100.00
2022-08-03T19:10:32.080Z,100.00
2022-08-03T19:13:04.962Z,100.00
2022-08-03T19:15:50.918Z,100.00
2022-08-03T19:18:21.984Z,100.00
2022-08-03T19:23:41.887Z,100.00
2022-08-03T19:26:29.916Z,100.00
2022-08-03T19:28:58.997Z,100.00
2022-08-03T19:31:30.955Z,100.00
2022-08-03T19:34:00.357Z,100.00
2022-08-03T19:36:32.322Z,100.00
2022-08-03T19:39:00.524Z,100.00
2022-08-03T19:41:41.981Z,100.00
2022-08-03T19:44:13.522Z,100.00
2022-08-03T19:46:51.279Z,100.00
2022-08-03T19:49:21.222Z,100.00
2022-08-03T19:52:01.225Z,100.00
2022-08-03T19:54:45.619Z,100.00
2022-08-03T19:57:24.424Z,100.00
2022-08-03T19:59:54.085Z,100.00
2022-08-03T20:02:25.677Z,100.00
2022-08-03T20:05:15.063Z,100.00
2022-08-03T20:07:48.162Z,100.00
2022-08-03T20:10:17.269Z,100.00
2022-08-03T20:12:46.131Z,100.00
2022-08-03T20:15:14.453Z,100.00
2022-08-03T20:17:56.771Z,100.00
2022-08-03T20:20:28.618Z,100.00
2022-08-03T20:23:00.276Z,100.00
2022-08-03T20:25:38.055Z,100.00
2022-08-03T20:28:14.030Z,100.00
2022-08-03T20:30:44.536Z,100.00
2022-08-03T20:33:18.945Z,100.00
2022-08-03T20:35:49.309Z,100.00
2022-08-03T20:38:19.755Z,100.00
2022-08-03T20:40:56.221Z,100.00
2022-08-03T20:43:27.481Z,100.00
2022-08-03T20:45:59.014Z,100.00
2022-08-03T20:48:48.624Z,100.00
2022-08-03T20:51:19.961Z,100.00
2022-08-03T20:53:59.484Z,100.00
2022-08-03T20:56:33.698Z,100.00
2022-08-03T20:59:03.331Z,100.00
2022-08-03T21:01:36.303Z,100.00
2022-08-03T21:04:09.237Z,100.00
2022-08-03T21:06:53.176Z,100.00
2022-08-03T21:09:39.775Z,100.00
2022-08-03T21:12:09.614Z,100.00
2022-08-03T21:13:01.994Z,100.00
2022-08-03T21:13:05.029Z,100.00
2022-08-03T21:14:40.375Z,100.00
2022-08-03T21:17:25.045Z,100.00
2022-08-03T21:19:59.213Z,100.00
2022-08-03T21:22:31.025Z,100.00
2022-08-03T21:25:04.116Z,100.00
2022-08-03T21:27:33.303Z,100.00
2022-08-03T21:30:03.447Z,100.00
2022-08-03T21:32:33.090Z,100.00
2022-08-03T21:35:02.179Z,100.00
2022-08-03T21:37:30.599Z,100.00
2022-08-03T21:40:00.635Z,100.00
2022-08-03T21:42:29.280Z,100.00
2022-08-03T21:44:57.788Z,100.00
2022-08-03T21:47:26.650Z,100.00
2022-08-03T21:50:08.238Z,100.00
2022-08-03T21:52:43.088Z,100.00
2022-08-03T21:55:18.601Z,100.00
2022-08-03T21:57:53.805Z,100.00
2022-08-03T22:00:24.064Z,100.00
2022-08-03T22:02:55.752Z,100.00
2022-08-03T22:05:28.836Z,100.00
2022-08-03T22:08:13.021Z,100.00
2022-08-03T22:10:44.727Z,100.00
2022-08-03T22:13:13.491Z,100.00
2022-08-03T22:15:43.980Z,100.00
2022-08-03T22:18:12.447Z,100.00
2022-08-03T22:20:40.854Z,100.00
2022-08-03T22:23:09.334Z,100.00
2022-08-03T22:25:41.819Z,100.00
2022-08-03T22:28:11.624Z,100.00
2022-08-03T22:30:40.629Z,100.00
2022-08-03T22:33:11.678Z,100.00
2022-08-03T22:35:47.585Z,100.00
2022-08-03T22:38:17.476Z,100.00
2022-08-03T22:40:49.029Z,100.00
2022-08-03T22:43:17.867Z,100.00
2022-08-03T22:46:09.465Z,100.00
2022-08-03T22:48:41.168Z,100.00
2022-08-03T22:51:10.441Z,100.00
2022-08-03T22:53:41.567Z,100.00
2022-08-03T22:56:11.265Z,100.00
2022-08-03T22:58:39.222Z,100.00
2022-08-03T23:01:08.590Z,100.00
2022-08-03T23:04:00.713Z,100.00
2022-08-03T23:06:34.702Z,100.00
2022-08-03T23:09:05.550Z,100.00
2022-08-03T23:11:36.930Z,100.00
2022-08-03T23:14:08.233Z,100.00
2022-08-03T23:16:39.563Z,100.00
2022-08-03T23:19:16.619Z,100.00
2022-08-03T23:22:00.535Z,100.00
2022-08-03T23:24:34.082Z,100.00
2022-08-03T23:27:03.599Z,100.00
2022-08-03T23:29:31.994Z,100.00
2022-08-03T23:32:02.377Z,100.00
2022-08-03T23:34:49.711Z,100.00
2022-08-03T23:37:18.759Z,100.00
2022-08-03T23:39:48.183Z,100.00
2022-08-03T23:42:20.175Z,100.00
2022-08-03T23:44:48.892Z,100.00
2022-08-03T23:47:16.896Z,100.00
2022-08-03T23:49:45.274Z,100.00
2022-08-03T23:52:17.441Z,100.00
2022-08-03T23:54:54.216Z,100.00
2022-08-03T23:57:31.027Z,100.00
